createdAt,value
2019-03-29T00:00:08.150Z,0.00
2019-03-29T00:01:08.148Z,0.00
2019-03-29T00:02:08.146Z,0.00
2019-03-29T00:03:09.028Z,0.00
2019-03-29T00:04:08.102Z,0.00
2019-03-29T00:05:08.136Z,0.00
2019-03-29T00:06:08.082Z,0.00
2019-03-29T00:07:08.086Z,0.00
2019-03-29T00:08:09.172Z,0.00
2019-03-29T00:09:08.046Z,0.00
2019-03-29T00:10:08.053Z,0.00
2019-03-29T00:11:08.025Z,0.00
2019-03-29T00:12:08.086Z,0.00
2019-03-29T00:13:08.002Z,0.00
2019-03-29T00:14:08.010Z,0.00
2019-03-29T00:15:08.126Z,0.00
2019-03-29T00:16:07.971Z,0.00
2019-03-29T00:17:07.979Z,0.00
2019-03-29T00:18:07.984Z,0.00
2019-03-29T00:19:07.960Z,0.00
2019-03-29T00:20:07.933Z,0.00
2019-03-29T00:21:07.918Z,0.00
2019-03-29T00:22:07.924Z,0.00
2019-03-29T00:23:07.899Z,0.00
2019-03-29T00:24:07.920Z,0.00
2019-03-29T00:25:07.885Z,0.00
2019-03-29T00:26:07.877Z,0.00
2019-03-29T00:27:07.854Z,0.00
2019-03-29T00:28:07.862Z,0.00
2019-03-29T00:29:07.839Z,0.00
2019-03-29T00:30:07.833Z,0.00
2019-03-29T00:31:07.854Z,0.00
2019-03-29T00:32:07.820Z,0.00
2019-03-29T00:33:07.851Z,0.00
2019-03-29T00:34:07.800Z,0.00
2019-03-29T00:35:08.036Z,0.00
2019-03-29T00:36:07.769Z,0.00
2019-03-29T00:37:07.749Z,0.00
2019-03-29T00:38:07.751Z,0.00
2019-03-29T00:39:07.726Z,0.00
2019-03-29T00:40:07.776Z,0.00
2019-03-29T00:41:07.705Z,0.00
2019-03-29T00:42:07.699Z,0.00
2019-03-29T00:43:08.991Z,0.00
2019-03-29T00:44:07.674Z,0.00
2019-03-29T00:45:07.670Z,0.00
2019-03-29T00:46:07.739Z,0.00
2019-03-29T00:47:07.665Z,0.00
2019-03-29T00:48:07.632Z,0.00
2019-03-29T00:49:07.625Z,0.00
2019-03-29T00:50:07.618Z,0.00
2019-03-29T00:51:07.610Z,0.00
2019-03-29T00:52:07.616Z,0.00
2019-03-29T00:53:09.012Z,0.00
2019-03-29T00:54:07.572Z,0.00
2019-03-29T00:55:07.573Z,0.00
2019-03-29T00:56:07.549Z,0.00
2019-03-29T00:57:07.540Z,0.00
2019-03-29T00:58:07.550Z,0.00
2019-03-29T00:59:07.558Z,0.00
2019-03-29T01:00:07.515Z,0.00
2019-03-29T01:01:07.495Z,0.00
2019-03-29T01:02:07.560Z,0.00
2019-03-29T01:03:07.582Z,0.00
2019-03-29T01:04:07.466Z,0.00
2019-03-29T01:05:07.519Z,0.00
2019-03-29T01:06:07.441Z,0.00
2019-03-29T01:07:07.436Z,0.00
2019-03-29T01:08:09.453Z,0.00
2019-03-29T01:09:07.431Z,0.00
2019-03-29T01:10:07.405Z,0.00
2019-03-29T01:11:07.406Z,0.00
2019-03-29T01:12:07.377Z,0.00
2019-03-29T01:13:07.722Z,0.00
2019-03-29T01:14:07.369Z,0.00
2019-03-29T01:15:07.350Z,0.00
2019-03-29T01:16:07.340Z,0.00
2019-03-29T01:17:07.331Z,0.00
2019-03-29T01:18:07.357Z,0.00
2019-03-29T01:19:07.322Z,0.00
2019-03-29T01:20:07.297Z,0.00
2019-03-29T01:21:07.289Z,0.00
2019-03-29T01:22:07.278Z,0.00
2019-03-29T01:23:07.299Z,0.00
2019-03-29T01:24:07.314Z,0.00
2019-03-29T01:25:08.004Z,0.00
2019-03-29T01:26:07.231Z,0.00
2019-03-29T01:27:07.228Z,0.00
2019-03-29T01:28:07.228Z,0.00
2019-03-29T01:29:07.222Z,0.00
2019-03-29T01:30:07.243Z,0.00
2019-03-29T01:31:07.195Z,0.00
2019-03-29T01:32:07.355Z,0.00
2019-03-29T01:33:07.161Z,0.00
2019-03-29T01:34:07.160Z,0.00
2019-03-29T01:35:07.154Z,0.00
2019-03-29T01:36:07.134Z,0.00
2019-03-29T01:37:07.130Z,0.00
2019-03-29T01:38:20.832Z,0.00
2019-03-29T01:39:08.099Z,0.00
2019-03-29T01:40:07.083Z,0.00
2019-03-29T01:41:07.087Z,0.00
2019-03-29T01:42:07.087Z,0.00
2019-03-29T01:43:07.079Z,0.00
2019-03-29T01:44:07.056Z,0.00
2019-03-29T01:45:07.032Z,0.00
2019-03-29T01:46:07.024Z,0.00
2019-03-29T01:47:07.020Z,0.00
2019-03-29T01:48:07.025Z,0.00
2019-03-29T01:49:07.047Z,0.00
2019-03-29T01:50:07.982Z,0.00
2019-03-29T01:51:06.968Z,0.00
2019-03-29T01:52:06.960Z,0.00
2019-03-29T01:53:06.948Z,0.00
2019-03-29T01:54:06.954Z,0.00
2019-03-29T01:55:07.040Z,0.00
2019-03-29T01:56:06.922Z,0.00
2019-03-29T01:57:07.016Z,0.00
2019-03-29T01:58:06.893Z,0.00
2019-03-29T01:59:06.935Z,0.00
2019-03-29T02:00:06.886Z,0.00
2019-03-29T02:01:06.891Z,0.00
2019-03-29T02:02:06.871Z,0.00
2019-03-29T02:03:06.898Z,0.00
2019-03-29T02:04:08.048Z,0.00
2019-03-29T02:05:06.821Z,0.00
2019-03-29T02:06:06.824Z,0.00
2019-03-29T02:07:06.804Z,0.00
2019-03-29T02:08:06.792Z,0.00
2019-03-29T02:09:06.805Z,0.00
2019-03-29T02:10:06.790Z,0.00
2019-03-29T02:11:06.757Z,0.00
2019-03-29T02:12:07.078Z,0.00
2019-03-29T02:13:06.732Z,0.00
2019-03-29T02:14:06.725Z,0.00
2019-03-29T02:15:06.747Z,0.00
2019-03-29T02:16:06.720Z,0.00
2019-03-29T02:17:06.690Z,0.00
2019-03-29T02:18:06.687Z,0.00
2019-03-29T02:19:06.671Z,0.00
2019-03-29T02:20:06.660Z,0.00
2019-03-29T02:21:06.679Z,0.00
2019-03-29T02:22:06.661Z,0.00
2019-03-29T02:23:06.626Z,0.00
2019-03-29T02:24:06.620Z,0.00
2019-03-29T02:25:06.606Z,0.00
2019-03-29T02:26:06.597Z,0.00
2019-03-29T02:27:06.601Z,0.00
2019-03-29T02:28:06.588Z,0.00
2019-03-29T02:29:06.562Z,0.00
2019-03-29T02:30:06.551Z,0.00
2019-03-29T02:31:06.541Z,0.00
2019-03-29T02:32:06.532Z,0.00
2019-03-29T02:33:06.543Z,0.00
2019-03-29T02:34:06.577Z,0.00
2019-03-29T02:35:06.546Z,0.00
2019-03-29T02:36:06.779Z,0.00
2019-03-29T02:37:06.494Z,0.00
2019-03-29T02:38:06.507Z,0.00
2019-03-29T02:39:06.470Z,0.00
2019-03-29T02:40:06.446Z,0.00
2019-03-29T02:41:06.497Z,0.00
2019-03-29T02:42:06.440Z,0.00
2019-03-29T02:43:06.422Z,0.00
2019-03-29T02:44:06.588Z,0.00
2019-03-29T02:45:06.418Z,0.00
2019-03-29T02:46:06.381Z,0.00
2019-03-29T02:47:06.382Z,0.00
2019-03-29T02:48:06.450Z,0.00
2019-03-29T02:49:06.348Z,0.00
2019-03-29T02:50:06.361Z,0.00
2019-03-29T02:51:06.351Z,0.00
2019-03-29T02:52:06.321Z,0.00
2019-03-29T02:53:06.332Z,0.00
2019-03-29T02:54:06.298Z,0.00
2019-03-29T02:55:06.315Z,0.00
2019-03-29T02:56:06.293Z,0.00
2019-03-29T02:57:06.282Z,0.00
2019-03-29T02:58:06.257Z,0.00
2019-03-29T02:59:06.325Z,0.00
2019-03-29T03:00:06.242Z,0.00
2019-03-29T03:01:06.239Z,0.00
2019-03-29T03:02:06.268Z,0.00
2019-03-29T03:03:06.209Z,0.00
2019-03-29T03:04:06.213Z,0.00
2019-03-29T03:05:06.191Z,0.00
2019-03-29T03:06:06.174Z,0.00
2019-03-29T03:07:06.160Z,0.00
2019-03-29T03:08:06.163Z,0.00
2019-03-29T03:09:13.686Z,0.00
2019-03-29T03:10:07.125Z,0.00
2019-03-29T03:11:06.131Z,0.00
2019-03-29T03:12:06.117Z,0.00
2019-03-29T03:13:06.135Z,0.00
2019-03-29T03:14:06.100Z,0.00
2019-03-29T03:15:06.094Z,0.00
2019-03-29T03:16:06.132Z,0.00
2019-03-29T03:17:06.085Z,0.00
2019-03-29T03:18:06.051Z,0.00
2019-03-29T03:19:06.035Z,0.00
2019-03-29T03:20:06.036Z,0.00
2019-03-29T03:21:06.019Z,0.00
2019-03-29T03:22:06.072Z,0.00
2019-03-29T03:23:06.022Z,0.00
2019-03-29T03:24:05.998Z,0.00
2019-03-29T03:25:05.974Z,0.00
2019-03-29T03:26:05.965Z,0.00
2019-03-29T03:27:05.959Z,0.00
2019-03-29T03:28:05.972Z,0.00
2019-03-29T03:29:05.998Z,0.00
2019-03-29T03:30:05.926Z,0.00
2019-03-29T03:31:05.910Z,0.00
2019-03-29T03:32:05.911Z,0.00
2019-03-29T03:33:05.898Z,0.00
2019-03-29T03:34:05.899Z,0.00
2019-03-29T03:35:05.924Z,0.00
2019-03-29T03:36:05.905Z,0.00
2019-03-29T03:37:05.846Z,0.00
2019-03-29T03:38:05.843Z,0.00
2019-03-29T03:39:05.828Z,0.00
2019-03-29T03:40:05.819Z,0.00
2019-03-29T03:41:05.846Z,0.00
2019-03-29T03:42:05.798Z,0.00
2019-03-29T03:43:05.837Z,0.00
2019-03-29T03:44:05.803Z,0.00
2019-03-29T03:45:05.774Z,0.00
2019-03-29T03:46:05.756Z,0.00
2019-03-29T03:47:05.769Z,0.00
2019-03-29T03:48:05.755Z,0.00
2019-03-29T03:49:05.735Z,0.00
2019-03-29T03:50:05.728Z,0.00
2019-03-29T03:51:05.714Z,0.00
2019-03-29T03:52:05.747Z,0.00
2019-03-29T03:53:05.688Z,0.00
2019-03-29T03:54:05.697Z,0.00
2019-03-29T03:55:05.666Z,0.00
2019-03-29T03:56:05.650Z,0.00
2019-03-29T03:57:05.648Z,0.00
2019-03-29T03:58:05.673Z,0.00
2019-03-29T03:59:05.628Z,0.00
2019-03-29T04:00:05.633Z,0.00
2019-03-29T04:01:05.616Z,0.00
2019-03-29T04:02:05.641Z,0.00
2019-03-29T04:03:05.618Z,0.00
2019-03-29T04:04:05.577Z,0.00
2019-03-29T04:05:05.599Z,0.00
2019-03-29T04:06:05.588Z,0.00
2019-03-29T04:07:05.537Z,0.00
2019-03-29T04:08:05.551Z,0.00
2019-03-29T04:09:05.521Z,0.00
2019-03-29T04:10:05.517Z,0.00
2019-03-29T04:11:05.530Z,0.00
2019-03-29T04:12:05.485Z,0.00
2019-03-29T04:13:05.493Z,0.00
2019-03-29T04:14:05.467Z,0.00
2019-03-29T04:15:05.470Z,0.00
2019-03-29T04:16:05.509Z,0.00
2019-03-29T04:17:05.515Z,0.00
2019-03-29T04:18:05.488Z,0.00
2019-03-29T04:19:05.413Z,0.00
2019-03-29T04:20:05.403Z,0.00
2019-03-29T04:21:05.395Z,0.00
2019-03-29T04:22:05.383Z,0.00
2019-03-29T04:23:05.385Z,0.00
2019-03-29T04:24:05.610Z,0.00
2019-03-29T04:25:05.359Z,0.00
2019-03-29T04:26:05.348Z,0.00
2019-03-29T04:27:05.335Z,0.00
2019-03-29T04:28:05.338Z,0.00
2019-03-29T04:29:05.522Z,0.00
2019-03-29T04:30:05.318Z,0.00
2019-03-29T04:31:05.290Z,0.00
2019-03-29T04:32:05.277Z,0.00
2019-03-29T04:33:05.268Z,0.00
2019-03-29T04:34:05.278Z,0.00
2019-03-29T04:35:05.250Z,0.00
2019-03-29T04:36:05.275Z,0.00
2019-03-29T04:37:05.227Z,0.00
2019-03-29T04:38:05.224Z,0.00
2019-03-29T04:39:05.218Z,0.00
2019-03-29T04:40:08.730Z,0.00
2019-03-29T04:41:05.205Z,0.00
2019-03-29T04:42:05.210Z,0.00
2019-03-29T04:43:05.165Z,0.00
2019-03-29T04:44:05.185Z,0.00
2019-03-29T04:45:05.143Z,4.00
2019-03-29T04:46:05.170Z,4.00
2019-03-29T04:47:05.125Z,0.00
2019-03-29T04:48:05.130Z,4.00
2019-03-29T04:49:05.123Z,4.00
2019-03-29T04:50:05.107Z,4.00
2019-03-29T04:51:05.081Z,8.00
2019-03-29T04:52:05.070Z,8.00
2019-03-29T04:53:05.092Z,8.00
2019-03-29T04:54:05.049Z,8.00
2019-03-29T04:55:05.084Z,12.00
2019-03-29T04:56:05.050Z,12.00
2019-03-29T04:57:05.014Z,12.00
2019-03-29T04:58:05.005Z,20.00
2019-03-29T04:59:05.005Z,20.00
2019-03-29T05:00:04.988Z,24.00
2019-03-29T05:01:05.009Z,28.00
2019-03-29T05:02:05.060Z,32.00
2019-03-29T05:03:04.980Z,40.00
2019-03-29T05:04:04.950Z,44.00
2019-03-29T05:05:05.020Z,48.00
2019-03-29T05:06:04.928Z,56.00
2019-03-29T05:07:04.916Z,60.00
2019-03-29T05:08:04.910Z,72.00
2019-03-29T05:09:04.939Z,80.00
2019-03-29T05:10:04.880Z,88.00
2019-03-29T05:11:04.872Z,100.00
2019-03-29T05:12:04.863Z,112.00
2019-03-29T05:13:04.850Z,120.00
2019-03-29T05:14:04.844Z,136.00
2019-03-29T05:15:04.900Z,144.00
2019-03-29T05:16:04.818Z,164.00
2019-03-29T05:17:04.819Z,172.00
2019-03-29T05:18:04.800Z,188.00
2019-03-29T05:19:04.787Z,208.00
2019-03-29T05:20:04.779Z,220.00
2019-03-29T05:21:04.786Z,236.00
2019-03-29T05:22:04.825Z,256.00
2019-03-29T05:23:04.749Z,272.00
2019-03-29T05:24:04.735Z,296.00
2019-03-29T05:25:04.731Z,312.00
2019-03-29T05:26:04.718Z,332.00
2019-03-29T05:27:04.778Z,348.00
2019-03-29T05:28:04.718Z,368.00
2019-03-29T05:29:04.795Z,392.00
2019-03-29T05:30:04.673Z,412.00
2019-03-29T05:31:04.690Z,436.00
2019-03-29T05:32:04.711Z,460.00
2019-03-29T05:33:04.665Z,480.00
2019-03-29T05:34:04.630Z,504.00
2019-03-29T05:35:04.622Z,532.00
2019-03-29T05:36:04.670Z,552.00
2019-03-29T05:37:04.674Z,580.00
2019-03-29T05:38:04.593Z,604.00
2019-03-29T05:39:04.600Z,628.00
2019-03-29T05:40:04.576Z,656.00
2019-03-29T05:41:04.589Z,676.00
2019-03-29T05:42:04.555Z,700.00
2019-03-29T05:43:04.536Z,724.00
2019-03-29T05:44:04.524Z,748.00
2019-03-29T05:45:04.594Z,768.00
2019-03-29T05:46:04.512Z,788.00
2019-03-29T05:47:04.566Z,808.00
2019-03-29T05:48:04.493Z,832.00
2019-03-29T05:49:04.474Z,856.00
2019-03-29T05:50:04.661Z,880.00
2019-03-29T05:51:04.477Z,900.00
2019-03-29T05:52:04.449Z,920.00
2019-03-29T05:53:04.501Z,940.00
2019-03-29T05:54:04.433Z,956.00
2019-03-29T05:55:04.417Z,976.00
2019-03-29T05:56:04.401Z,996.00
2019-03-29T05:57:04.434Z,1016.00
2019-03-29T05:58:04.389Z,1040.00
2019-03-29T05:59:04.376Z,1056.00
2019-03-29T06:00:04.362Z,1080.00
2019-03-29T06:01:04.417Z,1096.00
2019-03-29T06:02:04.367Z,1108.00
2019-03-29T06:03:04.350Z,1128.00
2019-03-29T06:04:04.319Z,1144.00
2019-03-29T06:05:04.309Z,1160.00
2019-03-29T06:06:04.301Z,1180.00
2019-03-29T06:07:04.290Z,1200.00
2019-03-29T06:08:04.434Z,1212.00
2019-03-29T06:09:04.272Z,1228.00
2019-03-29T06:10:04.270Z,1240.00
2019-03-29T06:11:04.259Z,1252.00
2019-03-29T06:12:04.249Z,1268.00
2019-03-29T06:13:04.247Z,1288.00
2019-03-29T06:14:04.247Z,1300.00
2019-03-29T06:15:04.209Z,1316.00
2019-03-29T06:16:06.163Z,1328.00
2019-03-29T06:17:04.187Z,1344.00
2019-03-29T06:18:04.192Z,1360.00
2019-03-29T06:19:04.162Z,1376.00
2019-03-29T06:20:04.172Z,1392.00
2019-03-29T06:21:04.170Z,1408.00
2019-03-29T06:22:04.135Z,1424.00
2019-03-29T06:23:04.148Z,1436.00
2019-03-29T06:24:04.120Z,1452.00
2019-03-29T06:25:04.102Z,1464.00
2019-03-29T06:26:04.118Z,1476.00
2019-03-29T06:27:04.077Z,1512.00
2019-03-29T06:28:04.098Z,1548.00
2019-03-29T06:29:04.058Z,1568.00
2019-03-29T06:30:04.082Z,1564.00
2019-03-29T06:31:04.046Z,1564.00
2019-03-29T06:32:04.030Z,1580.00
2019-03-29T06:33:04.029Z,1572.00
2019-03-29T06:34:04.003Z,1564.00
2019-03-29T06:35:04.033Z,1572.00
2019-03-29T06:36:04.010Z,1596.00
2019-03-29T06:37:03.984Z,1620.00
2019-03-29T06:38:03.984Z,1648.00
2019-03-29T06:39:03.955Z,1644.00
2019-03-29T06:40:03.939Z,1648.00
2019-03-29T06:41:03.934Z,1688.00
2019-03-29T06:42:03.915Z,1696.00
2019-03-29T06:43:04.031Z,1692.00
2019-03-29T06:44:03.893Z,1680.00
2019-03-29T06:45:03.889Z,1684.00
2019-03-29T06:46:03.888Z,1684.00
2019-03-29T06:47:03.860Z,1696.00
2019-03-29T06:48:03.870Z,1708.00
2019-03-29T06:49:03.870Z,1732.00
2019-03-29T06:50:03.883Z,1764.00
2019-03-29T06:51:03.822Z,1760.00
2019-03-29T06:52:03.809Z,1752.00
2019-03-29T06:53:03.801Z,1752.00
2019-03-29T06:54:04.009Z,1748.00
2019-03-29T06:55:03.797Z,1756.00
2019-03-29T06:56:03.802Z,1796.00
2019-03-29T06:57:03.756Z,1800.00
2019-03-29T06:58:03.749Z,1792.00
2019-03-29T06:59:03.753Z,1768.00
2019-03-29T07:00:03.731Z,1768.00
2019-03-29T07:01:03.720Z,1776.00
2019-03-29T07:02:03.730Z,1784.00
2019-03-29T07:03:03.767Z,1776.00
2019-03-29T07:04:03.682Z,1780.00
2019-03-29T07:05:03.688Z,1784.00
2019-03-29T07:06:03.665Z,1804.00
2019-03-29T07:07:03.653Z,1812.00
2019-03-29T07:08:03.651Z,1804.00
2019-03-29T07:09:03.678Z,1812.00
2019-03-29T07:10:03.634Z,1820.00
2019-03-29T07:11:16.538Z,1816.00
2019-03-29T07:12:04.611Z,1812.00
2019-03-29T07:13:03.623Z,1824.00
2019-03-29T07:14:03.596Z,1840.00
2019-03-29T07:15:03.579Z,1852.00
2019-03-29T07:16:03.558Z,1848.00
2019-03-29T07:17:03.607Z,1848.00
2019-03-29T07:18:03.576Z,1848.00
2019-03-29T07:19:05.136Z,1852.00
2019-03-29T07:20:03.528Z,1856.00
2019-03-29T07:21:03.528Z,1860.00
2019-03-29T07:22:03.494Z,1868.00
2019-03-29T07:23:03.488Z,1868.00
2019-03-29T07:24:03.513Z,1868.00
2019-03-29T07:25:03.457Z,1872.00
2019-03-29T07:26:03.458Z,1872.00
2019-03-29T07:27:03.467Z,1880.00
2019-03-29T07:28:03.438Z,1888.00
2019-03-29T07:29:03.451Z,1888.00
2019-03-29T07:30:03.423Z,1888.00
2019-03-29T07:31:03.410Z,1892.00
2019-03-29T07:32:03.390Z,1892.00
2019-03-29T07:33:03.373Z,1896.00
2019-03-29T07:34:03.411Z,1908.00
2019-03-29T07:35:03.355Z,1908.00
2019-03-29T07:36:03.451Z,1916.00
2019-03-29T07:37:05.772Z,1920.00
2019-03-29T07:38:03.325Z,1916.00
2019-03-29T07:39:03.313Z,1920.00
2019-03-29T07:40:03.304Z,1924.00
2019-03-29T07:41:03.378Z,1928.00
2019-03-29T07:42:03.311Z,1932.00
2019-03-29T07:43:03.309Z,1936.00
2019-03-29T07:44:03.266Z,1940.00
2019-03-29T07:45:03.301Z,1948.00
2019-03-29T07:46:03.238Z,1952.00
2019-03-29T07:47:03.227Z,1956.00
2019-03-29T07:48:03.298Z,1960.00
2019-03-29T07:49:03.246Z,1968.00
2019-03-29T07:50:03.194Z,1972.00
2019-03-29T07:51:03.188Z,1972.00
2019-03-29T07:52:03.213Z,1984.00
2019-03-29T07:53:03.182Z,1996.00
2019-03-29T07:54:03.179Z,2000.00
2019-03-29T07:55:03.140Z,2020.00
2019-03-29T07:56:03.130Z,2020.00
2019-03-29T07:57:03.231Z,2032.00
2019-03-29T07:58:03.112Z,2048.00
2019-03-29T07:59:03.101Z,2060.00
2019-03-29T08:00:03.134Z,2084.00
2019-03-29T08:01:03.098Z,2100.00
2019-03-29T08:02:03.091Z,2108.00
2019-03-29T08:03:03.087Z,2116.00
2019-03-29T08:04:03.044Z,2120.00
2019-03-29T08:05:03.046Z,2132.00
2019-03-29T08:06:03.052Z,2140.00
2019-03-29T08:07:03.016Z,2156.00
2019-03-29T08:08:02.999Z,2168.00
2019-03-29T08:09:03.048Z,2176.00
2019-03-29T08:10:04.064Z,2180.00
2019-03-29T08:11:02.990Z,2184.00
2019-03-29T08:12:02.969Z,2188.00
2019-03-29T08:13:02.949Z,2192.00
2019-03-29T08:14:02.945Z,2196.00
2019-03-29T08:15:02.990Z,2192.00
2019-03-29T08:16:02.917Z,2200.00
2019-03-29T08:17:02.927Z,2200.00
2019-03-29T08:18:02.899Z,2200.00
2019-03-29T08:19:02.891Z,2208.00
2019-03-29T08:20:36.729Z,2212.00
2019-03-29T08:21:03.893Z,2228.00
2019-03-29T08:22:02.857Z,2228.00
2019-03-29T08:23:02.854Z,2224.00
2019-03-29T08:24:02.836Z,2228.00
2019-03-29T08:25:02.836Z,2244.00
2019-03-29T08:26:02.810Z,2252.00
2019-03-29T08:27:02.856Z,2260.00
2019-03-29T08:28:02.797Z,2296.00
2019-03-29T08:29:02.782Z,2292.00
2019-03-29T08:30:02.764Z,2284.00
2019-03-29T08:31:02.764Z,2280.00
2019-03-29T08:32:02.771Z,2296.00
2019-03-29T08:33:02.732Z,2300.00
2019-03-29T08:34:02.721Z,2316.00
2019-03-29T08:35:02.712Z,2324.00
2019-03-29T08:36:02.699Z,2308.00
2019-03-29T08:37:02.735Z,2348.00
2019-03-29T08:38:06.042Z,2400.00
2019-03-29T08:39:02.677Z,2500.00
2019-03-29T08:40:02.660Z,2512.00
2019-03-29T08:41:02.647Z,2468.00
2019-03-29T08:42:02.639Z,2444.00
2019-03-29T08:43:02.665Z,2432.00
2019-03-29T08:44:02.653Z,2412.00
2019-03-29T08:45:02.609Z,2428.00
2019-03-29T08:46:02.612Z,2440.00
2019-03-29T08:47:02.605Z,2400.00
2019-03-29T08:48:02.600Z,2388.00
2019-03-29T08:49:02.562Z,2408.00
2019-03-29T08:50:02.603Z,2508.00
2019-03-29T08:51:02.541Z,2496.00
2019-03-29T08:52:02.530Z,2484.00
2019-03-29T08:53:02.542Z,2512.00
2019-03-29T08:54:02.527Z,2516.00
2019-03-29T08:55:02.501Z,2516.00
2019-03-29T08:56:02.499Z,2516.00
2019-03-29T08:57:02.486Z,2476.00
2019-03-29T08:58:02.472Z,2420.00
2019-03-29T08:59:02.510Z,2408.00
2019-03-29T09:00:02.447Z,2388.00
2019-03-29T09:01:02.454Z,2384.00
2019-03-29T09:02:02.422Z,2328.00
2019-03-29T09:03:02.431Z,2288.00
2019-03-29T09:04:05.625Z,2276.00
2019-03-29T09:05:02.443Z,2240.00
2019-03-29T09:06:02.379Z,2192.00
2019-03-29T09:07:02.406Z,2148.00
2019-03-29T09:08:02.360Z,2140.00
2019-03-29T09:09:02.368Z,2140.00
2019-03-29T09:10:02.372Z,2128.00
2019-03-29T09:11:02.357Z,2144.00
2019-03-29T09:12:13.709Z,2156.00
2019-03-29T09:13:04.621Z,2172.00
2019-03-29T09:14:02.300Z,2160.00
2019-03-29T09:15:04.109Z,2156.00
2019-03-29T09:16:02.279Z,2164.00
2019-03-29T09:17:02.323Z,2176.00
2019-03-29T09:18:02.269Z,2192.00
2019-03-29T09:19:02.239Z,2200.00
2019-03-29T09:20:02.236Z,2224.00
2019-03-29T09:21:02.220Z,2224.00
2019-03-29T09:22:02.416Z,2212.00
2019-03-29T09:23:02.250Z,2200.00
2019-03-29T09:24:02.218Z,2200.00
2019-03-29T09:25:02.173Z,2200.00
2019-03-29T09:26:02.162Z,2200.00
2019-03-29T09:27:02.152Z,2204.00
2019-03-29T09:28:02.142Z,2196.00
2019-03-29T09:29:02.155Z,2192.00
2019-03-29T09:30:04.999Z,2192.00
2019-03-29T09:31:02.266Z,2192.00
2019-03-29T09:32:02.104Z,2204.00
2019-03-29T09:33:02.097Z,2232.00
2019-03-29T09:34:02.113Z,2328.00
2019-03-29T09:35:02.108Z,2396.00
2019-03-29T09:36:04.862Z,2396.00
2019-03-29T09:37:02.088Z,2396.00
2019-03-29T09:38:02.035Z,2432.00
2019-03-29T09:39:02.022Z,2452.00
2019-03-29T09:40:02.029Z,2464.00
2019-03-29T09:41:02.030Z,2468.00
2019-03-29T09:42:01.992Z,2480.00
2019-03-29T09:43:09.139Z,2480.00
2019-03-29T09:44:02.973Z,2500.00
2019-03-29T09:45:01.985Z,2492.00
2019-03-29T09:46:03.500Z,2496.00
2019-03-29T09:47:01.955Z,2500.00
2019-03-29T09:48:01.931Z,2496.00
2019-03-29T09:49:01.933Z,2488.00
2019-03-29T09:50:01.911Z,2504.00
2019-03-29T09:51:01.911Z,2512.00
2019-03-29T09:52:02.023Z,2496.00
2019-03-29T09:53:01.894Z,2500.00
2019-03-29T09:54:01.878Z,2504.00
2019-03-29T09:55:01.858Z,2524.00
2019-03-29T09:56:01.851Z,1676.00
2019-03-29T09:57:01.857Z,1772.00
2019-03-29T09:58:01.836Z,1712.00
2019-03-29T09:59:01.824Z,2324.00
2019-03-29T10:00:01.797Z,2520.00
2019-03-29T10:01:01.793Z,2524.00
2019-03-29T10:02:01.867Z,2524.00
2019-03-29T10:03:01.792Z,2536.00
2019-03-29T10:04:01.771Z,2552.00
2019-03-29T10:05:02.016Z,2524.00
2019-03-29T10:06:01.737Z,2264.00
2019-03-29T10:07:01.726Z,1836.00
2019-03-29T10:08:01.718Z,1840.00
2019-03-29T10:09:01.733Z,2400.00
2019-03-29T10:10:01.701Z,2692.00
2019-03-29T10:11:01.750Z,2712.00
2019-03-29T10:12:01.687Z,2724.00
2019-03-29T10:13:01.660Z,2688.00
2019-03-29T10:14:01.709Z,2716.00
2019-03-29T10:15:01.641Z,2776.00
2019-03-29T10:16:01.629Z,2740.00
2019-03-29T10:17:01.669Z,2160.00
2019-03-29T10:18:01.607Z,2148.00
2019-03-29T10:19:01.594Z,2008.00
2019-03-29T10:20:01.603Z,2112.00
2019-03-29T10:21:01.571Z,2208.00
2019-03-29T10:22:01.589Z,2620.00
2019-03-29T10:23:01.595Z,2564.00
2019-03-29T10:24:01.543Z,2552.00
2019-03-29T10:25:02.562Z,2560.00
2019-03-29T10:26:01.536Z,2572.00
2019-03-29T10:27:01.517Z,2536.00
2019-03-29T10:28:01.496Z,2524.00
2019-03-29T10:29:01.491Z,2524.00
2019-03-29T10:30:01.534Z,2512.00
2019-03-29T10:31:01.482Z,2512.00
2019-03-29T10:32:01.472Z,2512.00
2019-03-29T10:33:01.537Z,2528.00
2019-03-29T10:34:01.462Z,2588.00
2019-03-29T10:35:01.419Z,2640.00
2019-03-29T10:36:01.431Z,2636.00
2019-03-29T10:37:01.468Z,2588.00
2019-03-29T10:38:01.406Z,2536.00
2019-03-29T10:39:01.418Z,2516.00
2019-03-29T10:40:01.381Z,2516.00
2019-03-29T10:41:01.355Z,2508.00
2019-03-29T10:42:01.344Z,2504.00
2019-03-29T10:43:01.341Z,2528.00
2019-03-29T10:44:01.356Z,2552.00
2019-03-29T10:45:01.405Z,2568.00
2019-03-29T10:46:01.328Z,2592.00
2019-03-29T10:47:01.297Z,2556.00
2019-03-29T10:48:01.303Z,2532.00
2019-03-29T10:49:01.283Z,2516.00
2019-03-29T10:50:01.281Z,2544.00
2019-03-29T10:51:01.371Z,2532.00
2019-03-29T10:52:01.273Z,2508.00
2019-03-29T10:53:01.227Z,2528.00
2019-03-29T10:54:01.244Z,2524.00
2019-03-29T10:55:01.235Z,2484.00
2019-03-29T10:56:01.217Z,2512.00
2019-03-29T10:57:01.188Z,2492.00
2019-03-29T10:58:01.346Z,2528.00
2019-03-29T10:59:01.194Z,2692.00
2019-03-29T11:00:01.168Z,2716.00
2019-03-29T11:01:01.147Z,2684.00
2019-03-29T11:02:01.140Z,2596.00
2019-03-29T11:03:01.121Z,2624.00
2019-03-29T11:04:01.179Z,2556.00
2019-03-29T11:05:01.108Z,2532.00
2019-03-29T11:06:01.150Z,2540.00
2019-03-29T11:07:01.076Z,2560.00
2019-03-29T11:08:01.065Z,2644.00
2019-03-29T11:09:01.058Z,2644.00
2019-03-29T11:10:01.045Z,2624.00
2019-03-29T11:11:01.045Z,2616.00
2019-03-29T11:12:01.062Z,2612.00
2019-03-29T11:13:11.917Z,2500.00
2019-03-29T11:14:02.022Z,2640.00
2019-03-29T11:15:01.011Z,3248.00
2019-03-29T11:16:00.982Z,3492.00
2019-03-29T11:17:00.970Z,3956.00
2019-03-29T11:18:00.960Z,4520.00
2019-03-29T11:19:00.948Z,4896.00
2019-03-29T11:20:00.956Z,5240.00
2019-03-29T11:21:00.988Z,5364.00
2019-03-29T11:22:00.933Z,4852.00
2019-03-29T11:23:00.911Z,4292.00
2019-03-29T11:24:00.963Z,3876.00
2019-03-29T11:25:00.892Z,3692.00
2019-03-29T11:26:00.895Z,3532.00
2019-03-29T11:27:01.020Z,3268.00
2019-03-29T11:28:00.874Z,3152.00
2019-03-29T11:29:00.841Z,3192.00
2019-03-29T11:30:00.874Z,3328.00
2019-03-29T11:31:00.876Z,3324.00
2019-03-29T11:32:00.845Z,3468.00
2019-03-29T11:33:00.799Z,3808.00
2019-03-29T11:34:00.804Z,4064.00
2019-03-29T11:35:00.816Z,4424.00
2019-03-29T11:36:00.834Z,4788.00
2019-03-29T11:37:00.789Z,5380.00
2019-03-29T11:38:00.758Z,5808.00
2019-03-29T11:39:00.739Z,5948.00
2019-03-29T11:40:00.758Z,6044.00
2019-03-29T11:41:00.730Z,5760.00
2019-03-29T11:42:03.501Z,5860.00
2019-03-29T11:43:00.716Z,5720.00
2019-03-29T11:44:00.685Z,5484.00
2019-03-29T11:45:00.693Z,5340.00
2019-03-29T11:46:00.667Z,5688.00
2019-03-29T11:47:00.652Z,7036.00
2019-03-29T11:48:08.592Z,7052.00
2019-03-29T11:49:01.629Z,6692.00
2019-03-29T11:50:00.772Z,6444.00
2019-03-29T11:51:00.632Z,6200.00
2019-03-29T11:52:00.597Z,6072.00
2019-03-29T11:53:00.587Z,5844.00
2019-03-29T11:54:00.592Z,5012.00
2019-03-29T11:55:00.569Z,4092.00
2019-03-29T11:56:00.579Z,3556.00
2019-03-29T11:57:00.561Z,3504.00
2019-03-29T11:58:00.544Z,3544.00
2019-03-29T11:59:00.570Z,3576.00
2019-03-29T12:00:00.535Z,3612.00
2019-03-29T12:01:00.500Z,3668.00
2019-03-29T12:02:00.503Z,3628.00
2019-03-29T12:03:00.484Z,3600.00
2019-03-29T12:04:00.466Z,3552.00
2019-03-29T12:05:00.481Z,3668.00
2019-03-29T12:06:00.501Z,4192.00
2019-03-29T12:07:03.426Z,4656.00
2019-03-29T12:08:00.424Z,4804.00
2019-03-29T12:09:00.418Z,4940.00
2019-03-29T12:10:00.411Z,5016.00
2019-03-29T12:11:00.594Z,4768.00
2019-03-29T12:12:00.421Z,4684.00
2019-03-29T12:13:00.372Z,4572.00
2019-03-29T12:14:00.448Z,4652.00
2019-03-29T12:15:00.392Z,4752.00
2019-03-29T12:16:00.338Z,5052.00
2019-03-29T12:17:00.338Z,5092.00
2019-03-29T12:18:00.447Z,4940.00
2019-03-29T12:19:00.322Z,4764.00
2019-03-29T12:20:00.378Z,4356.00
2019-03-29T12:21:00.296Z,4220.00
2019-03-29T12:22:00.278Z,4244.00
2019-03-29T12:23:00.366Z,4400.00
2019-03-29T12:24:00.256Z,4100.00
2019-03-29T12:25:00.351Z,3800.00
2019-03-29T12:26:00.247Z,3656.00
2019-03-29T12:27:00.260Z,3672.00
2019-03-29T12:28:00.251Z,3804.00
2019-03-29T12:29:00.196Z,2628.00
2019-03-29T12:30:00.368Z,3844.00
2019-03-29T12:31:00.173Z,3764.00
2019-03-29T12:32:00.292Z,3764.00
2019-03-29T12:33:00.152Z,3856.00
2019-03-29T12:34:00.140Z,3804.00